createdAt,value
2023-02-16T00:00:27.761Z,99852.79
2023-02-16T00:03:21.466Z,99849.98
2023-02-16T00:05:49.502Z,99848.59
2023-02-16T00:08:16.354Z,99851.45
2023-02-16T00:11:05.086Z,99854.84
2023-02-16T00:13:44.112Z,99850.90
2023-02-16T00:16:22.285Z,99849.15
2023-02-16T00:18:51.106Z,99848.91
2023-02-16T00:21:18.357Z,99846.56
2023-02-16T00:23:46.130Z,99847.18
2023-02-16T00:26:19.152Z,99843.52
2023-02-16T00:28:49.141Z,99845.39
2023-02-16T00:31:22.014Z,99839.84
2023-02-16T00:33:50.205Z,99835.58
2023-02-16T00:36:21.146Z,99842.09
2023-02-16T00:38:50.808Z,99842.30
2023-02-16T00:41:40.148Z,99841.75
2023-02-16T00:44:17.200Z,99837.73
2023-02-16T00:46:45.804Z,99834.00
2023-02-16T00:49:15.662Z,99831.88
2023-02-16T00:51:43.337Z,99826.39
2023-02-16T00:54:10.835Z,99821.80
2023-02-16T00:56:38.434Z,99818.20
2023-02-16T00:59:11.697Z,99816.02
2023-02-16T01:01:38.971Z,99816.30
2023-02-16T01:04:07.495Z,99818.31
2023-02-16T01:06:52.869Z,99816.63
2023-02-16T01:36:49.236Z,99796.34
2023-02-16T01:39:19.992Z,99782.93
2023-02-16T01:42:19.858Z,99782.09
2023-02-16T01:44:50.943Z,99782.79
2023-02-16T01:47:53.374Z,99777.40
2023-02-16T01:50:25.795Z,99775.02
2023-02-16T01:53:01.756Z,99774.50
2023-02-16T01:55:36.164Z,99772.42
2023-02-16T01:58:27.294Z,99771.13
2023-02-16T02:00:55.279Z,99769.02
2023-02-16T02:03:45.183Z,99771.33
2023-02-16T02:06:32.942Z,99769.50
2023-02-16T02:09:31.141Z,99773.42
2023-02-16T02:38:05.897Z,99744.33
2023-02-16T02:40:55.959Z,99736.34
2023-02-16T02:43:42.333Z,99734.58
2023-02-16T02:46:26.486Z,99730.52
2023-02-16T02:48:54.777Z,99727.65
2023-02-16T02:51:29.458Z,99721.41
2023-02-16T02:54:24.134Z,99717.98
2023-02-16T02:57:37.276Z,99709.64
2023-02-16T03:00:48.142Z,99704.98
2023-02-16T03:03:27.772Z,99699.55
2023-02-16T03:06:03.440Z,99698.23
2023-02-16T03:08:35.031Z,99698.27
2023-02-16T03:11:54.403Z,99695.09
2023-02-16T03:14:36.623Z,99702.49
2023-02-16T03:17:31.432Z,99699.16
2023-02-16T03:20:21.274Z,99694.68
2023-02-16T03:23:08.354Z,99695.18
2023-02-16T03:25:58.132Z,99695.38
2023-02-16T03:28:48.315Z,99698.41
2023-02-16T03:31:21.019Z,99693.85
2023-02-16T03:33:54.959Z,99686.02
2023-02-16T03:36:27.243Z,99686.13
2023-02-16T03:38:57.214Z,99685.92
2023-02-16T03:41:26.632Z,99683.65
2023-02-16T03:43:54.871Z,99681.96
2023-02-16T03:46:23.119Z,99681.44
2023-02-16T03:48:51.435Z,99675.79
2023-02-16T03:51:19.756Z,99670.91
2023-02-16T03:53:48.296Z,99666.95
2023-02-16T03:56:16.955Z,99659.78
2023-02-16T03:58:47.728Z,99655.54
2023-02-16T04:01:15.717Z,99651.96
2023-02-16T04:03:43.977Z,99647.73
2023-02-16T04:06:12.355Z,99655.02
2023-02-16T04:08:40.814Z,99651.77
2023-02-16T04:11:27.642Z,99651.95
2023-02-16T04:13:55.655Z,99650.50
2023-02-16T04:16:23.960Z,99650.05
2023-02-16T04:18:52.153Z,99656.67
2023-02-16T04:21:20.546Z,99657.02
2023-02-16T04:23:48.733Z,99647.95
2023-02-16T04:26:16.903Z,99646.77
2023-02-16T04:28:45.343Z,99642.71
2023-02-16T04:31:13.803Z,99640.39
2023-02-16T04:33:41.925Z,99644.09
2023-02-16T04:36:10.409Z,99645.83
2023-02-16T04:38:38.851Z,99648.03
2023-02-16T04:41:07.051Z,99646.31
2023-02-16T04:43:35.304Z,99646.59
2023-02-16T04:46:03.638Z,99649.16
2023-02-16T04:48:31.905Z,99641.92
2023-02-16T04:51:00.022Z,99643.51
2023-02-16T04:53:28.320Z,99645.20
2023-02-16T04:55:56.494Z,99642.76
2023-02-16T04:58:25.091Z,99637.09
2023-02-16T05:00:53.171Z,99643.70
2023-02-16T05:03:21.642Z,99640.08
2023-02-16T05:05:49.918Z,99644.64
2023-02-16T05:08:20.754Z,99647.40
2023-02-16T05:11:09.239Z,99653.17
2023-02-16T05:13:55.952Z,99659.80
2023-02-16T05:16:24.621Z,99657.49
2023-02-16T05:18:52.960Z,99653.69
2023-02-16T05:21:40.390Z,99652.70
2023-02-16T05:24:10.743Z,99651.27
2023-02-16T05:26:46.371Z,99651.27
2023-02-16T05:29:17.644Z,99648.83
2023-02-16T05:31:46.074Z,99651.27
2023-02-16T05:34:27.588Z,99653.35
2023-02-16T05:37:01.575Z,99650.17
2023-02-16T05:39:30.279Z,99650.02
2023-02-16T05:42:21.597Z,99650.73
2023-02-16T05:45:09.144Z,99650.15
2023-02-16T05:47:42.422Z,99650.04
2023-02-16T06:02:02.246Z,99655.20
2023-02-16T06:04:32.673Z,99653.66
2023-02-16T06:07:01.055Z,99656.66
2023-02-16T06:09:31.393Z,99655.61
2023-02-16T06:11:59.859Z,99657.10
2023-02-16T06:14:30.263Z,99665.30
2023-02-16T06:16:58.889Z,99661.05
2023-02-16T06:19:37.476Z,99662.47
2023-02-16T06:22:05.619Z,99661.55
2023-02-16T06:24:37.313Z,99655.58
2023-02-16T06:27:37.705Z,99657.59
2023-02-16T06:30:22.422Z,99659.94
2023-02-16T06:32:54.255Z,99658.10
2023-02-16T06:35:22.866Z,99661.39
2023-02-16T06:37:51.820Z,99661.13
2023-02-16T06:40:30.513Z,99661.42
2023-02-16T06:43:10.774Z,99664.07
2023-02-16T06:45:39.039Z,99666.16
2023-02-16T06:48:07.052Z,99669.49
2023-02-16T06:50:38.163Z,99664.97
2023-02-16T06:53:06.483Z,99666.30
2023-02-16T06:55:36.871Z,99660.08
2023-02-16T06:58:09.125Z,99663.38
2023-02-16T07:00:40.106Z,99663.58
2023-02-16T07:03:11.249Z,99663.65
2023-02-16T07:05:39.805Z,99665.35
2023-02-16T07:08:22.090Z,99659.71
2023-02-16T07:10:56.313Z,99659.38
2023-02-16T07:13:41.948Z,99658.46
2023-02-16T07:16:19.939Z,99652.56
2023-02-16T07:18:48.420Z,99654.02
2023-02-16T07:21:17.187Z,99651.32
2023-02-16T07:23:45.947Z,99645.80
2023-02-16T07:26:38.978Z,99637.22
2023-02-16T07:29:41.961Z,99631.50
2023-02-16T07:32:25.103Z,99629.27
2023-02-16T07:35:23.117Z,99631.08
2023-02-16T08:59:10.532Z,99693.83
2023-02-16T09:01:42.165Z,99694.62
2023-02-16T09:04:11.738Z,99702.10
2023-02-16T09:06:44.506Z,99708.56
2023-02-16T09:09:16.647Z,99719.88
2023-02-16T09:11:46.116Z,99726.13
2023-02-16T09:14:16.275Z,99726.58
2023-02-16T09:16:49.359Z,99728.64
2023-02-16T09:19:21.524Z,99742.23
2023-02-16T09:21:52.629Z,99753.09
2023-02-16T09:24:22.024Z,99756.05
2023-02-16T09:26:50.935Z,99761.66
2023-02-16T09:29:19.771Z,99771.33
2023-02-16T09:31:48.261Z,99780.80
2023-02-16T09:34:20.363Z,99782.52
2023-02-16T09:36:50.392Z,99784.88
2023-02-16T09:39:19.314Z,99793.09
2023-02-16T10:04:06.250Z,99847.77
2023-02-16T11:13:49.414Z,99919.52
2023-02-16T12:06:48.099Z,99930.24
2023-02-16T12:09:23.735Z,99935.30
2023-02-16T12:12:09.244Z,99939.04
2023-02-16T12:15:03.558Z,99936.77
2023-02-16T12:18:03.536Z,99930.73
2023-02-16T12:20:54.421Z,99929.46
2023-02-16T12:23:41.816Z,99925.31
2023-02-16T12:26:29.172Z,99930.72
2023-02-16T12:33:08.169Z,99928.88
2023-02-16T12:35:45.625Z,99932.36
2023-02-16T12:38:32.998Z,99936.51
2023-02-16T12:41:21.711Z,99937.35
2023-02-16T12:44:16.671Z,99935.89
2023-02-16T12:47:08.483Z,99942.77
2023-02-16T12:49:54.513Z,99941.06
2023-02-16T12:52:31.775Z,99942.21
2023-02-16T12:55:22.180Z,99943.27
2023-02-16T12:58:08.277Z,99946.35
2023-02-16T13:00:49.858Z,99942.88
2023-02-16T13:03:32.879Z,99942.59
2023-02-16T13:06:27.746Z,99946.56
2023-02-16T13:42:54.337Z,99918.30
2023-02-16T13:45:27.617Z,99920.50
2023-02-16T13:48:00.381Z,99920.15
2023-02-16T13:50:42.425Z,99923.19
2023-02-16T13:53:20.440Z,99929.12
2023-02-16T13:55:51.340Z,99928.82
2023-02-16T13:58:32.839Z,99927.42
2023-02-16T14:01:29.070Z,99928.60
2023-02-16T14:03:58.866Z,99928.98
2023-02-16T14:06:27.339Z,99925.33
2023-02-16T14:09:12.205Z,99923.64
2023-02-16T14:11:52.322Z,99923.05
2023-02-16T14:14:47.604Z,99915.16
2023-02-16T14:17:21.329Z,99911.73
2023-02-16T14:19:53.087Z,99912.16
2023-02-16T14:29:44.553Z,99897.08
2023-02-16T14:43:39.541Z,99898.23
2023-02-16T14:46:39.608Z,99892.19
2023-02-16T14:49:12.723Z,99890.42
2023-02-16T14:52:01.458Z,99894.27
2023-02-16T15:25:13.882Z,99853.00
2023-02-16T15:27:52.133Z,99850.70
2023-02-16T15:30:26.530Z,99853.04
2023-02-16T15:33:43.196Z,99850.61
2023-02-16T15:40:14.907Z,99840.55
2023-02-16T15:42:44.678Z,99839.46
2023-02-16T15:45:47.668Z,99837.61
2023-02-16T15:48:22.335Z,99838.34
2023-02-16T15:50:56.836Z,99838.02
2023-02-16T15:53:41.866Z,99835.19
2023-02-16T15:56:30.608Z,99832.80
2023-02-16T15:59:01.355Z,99838.97
2023-02-16T16:01:34.316Z,99843.17
2023-02-16T16:04:22.650Z,99842.06
2023-02-16T16:06:50.772Z,99836.98
2023-02-16T16:09:25.169Z,99836.39
2023-02-16T16:11:57.861Z,99839.39
2023-02-16T16:14:27.392Z,99838.00
2023-02-16T16:16:55.257Z,99841.97
2023-02-16T16:19:31.378Z,99840.06
2023-02-16T16:21:58.952Z,99833.73
2023-02-16T16:24:32.063Z,99841.33
2023-02-16T16:27:01.578Z,99841.21
2023-02-16T16:29:31.429Z,99839.05
2023-02-16T16:32:04.896Z,99842.09
2023-02-16T16:34:31.465Z,99841.48
2023-02-16T16:37:07.106Z,99843.95
2023-02-16T16:51:11.506Z,99847.48
2023-02-16T16:54:24.845Z,99849.21
2023-02-16T16:56:51.974Z,99844.59
2023-02-16T16:59:19.280Z,99844.84
2023-02-16T17:01:49.796Z,99844.58
2023-02-16T17:04:29.840Z,99838.79
2023-02-16T17:07:03.691Z,99839.64
2023-02-16T17:09:32.920Z,99833.89
2023-02-16T17:12:02.523Z,99833.08
2023-02-16T17:14:29.518Z,99832.77
2023-02-16T17:17:01.695Z,99829.69
2023-02-16T17:38:20.735Z,99822.46
2023-02-16T17:40:50.745Z,99823.99
2023-02-16T17:43:19.701Z,99825.30
2023-02-16T17:45:48.900Z,99818.05
2023-02-16T17:48:24.214Z,99814.41
2023-02-16T17:50:51.367Z,99815.52
2023-02-16T17:53:24.557Z,99819.38
2023-02-16T17:55:55.594Z,99817.77
2023-02-16T17:58:26.559Z,99817.61
2023-02-16T18:00:54.686Z,99816.13
2023-02-16T18:03:22.401Z,99816.19
2023-02-16T18:05:50.002Z,99811.77
2023-02-16T18:08:16.839Z,99815.38
2023-02-16T18:11:01.439Z,99808.70
2023-02-16T18:13:31.037Z,99806.45
2023-02-16T18:15:59.776Z,99805.73
2023-02-16T18:18:26.279Z,99806.02
2023-02-16T18:20:53.120Z,99799.05
2023-02-16T18:23:20.079Z,99796.45
2023-02-16T18:25:47.026Z,99793.73
2023-02-16T18:28:19.774Z,99791.04
2023-02-16T18:30:48.639Z,99788.69
2023-02-16T18:33:16.986Z,99786.33
2023-02-16T18:35:43.916Z,99779.98
2023-02-16T18:38:10.513Z,99782.54
2023-02-16T18:40:37.351Z,99775.77
2023-02-16T18:43:05.287Z,99775.05
2023-02-16T18:45:32.340Z,99774.36
2023-02-16T18:48:01.118Z,99772.20
2023-02-16T18:50:34.411Z,99774.03
2023-02-16T18:53:21.398Z,99771.19
2023-02-16T18:55:48.009Z,99772.83
2023-02-16T18:58:14.971Z,99772.11
2023-02-16T19:00:44.141Z,99769.06
2023-02-16T19:03:16.244Z,99768.79
2023-02-16T19:05:43.231Z,99766.16
2023-02-16T19:08:10.085Z,99767.81
2023-02-16T19:10:36.937Z,99763.13
2023-02-16T19:13:06.341Z,99760.98
2023-02-16T19:15:35.109Z,99754.87
2023-02-16T19:18:02.899Z,99753.13
2023-02-16T19:20:30.205Z,99751.03
2023-02-16T19:23:01.401Z,99746.14
2023-02-16T19:25:28.817Z,99738.02
2023-02-16T19:27:56.725Z,99741.54
2023-02-16T19:30:23.816Z,99742.75
2023-02-16T19:32:51.633Z,99747.20
2023-02-16T19:35:19.113Z,99746.51
2023-02-16T19:37:46.312Z,99747.36
2023-02-16T19:40:13.465Z,99747.61
2023-02-16T19:42:40.414Z,99741.83
2023-02-16T19:45:07.793Z,99748.04
2023-02-16T19:47:34.756Z,99743.04
2023-02-16T19:50:02.000Z,99747.06
2023-02-16T19:52:28.722Z,99743.91
2023-02-16T19:54:55.617Z,99743.39
2023-02-16T19:57:24.983Z,99740.02
2023-02-16T19:59:51.950Z,99738.70
2023-02-16T20:02:19.036Z,99728.35
2023-02-16T20:04:45.975Z,99732.65
2023-02-16T20:07:13.272Z,99728.45
2023-02-16T20:09:40.008Z,99728.91
2023-02-16T20:12:06.945Z,99730.16
2023-02-16T20:14:33.691Z,99728.38
2023-02-16T20:17:00.393Z,99727.69
2023-02-16T20:19:27.276Z,99724.04
2023-02-16T20:21:54.410Z,99720.69
2023-02-16T20:24:24.403Z,99715.36
2023-02-16T20:26:53.859Z,99715.05
2023-02-16T20:29:20.806Z,99716.30
2023-02-16T20:31:57.164Z,99717.35
2023-02-16T20:35:14.886Z,99721.05
2023-02-16T20:37:43.073Z,99715.22
2023-02-16T20:40:10.658Z,99717.91
2023-02-16T20:42:39.760Z,99716.50
2023-02-16T20:45:06.809Z,99718.81
2023-02-16T20:47:39.647Z,99714.97
2023-02-16T20:50:07.160Z,99709.45
2023-02-16T20:52:39.809Z,99710.77
2023-02-16T20:55:07.256Z,99705.83
2023-02-16T20:57:41.236Z,99701.27
2023-02-16T21:00:16.307Z,99696.48
2023-02-16T21:02:46.094Z,99694.64
2023-02-16T21:05:13.519Z,99694.45
2023-02-16T21:07:39.991Z,99696.11
2023-02-16T21:10:08.896Z,99690.84
2023-02-16T21:12:37.482Z,99688.54
2023-02-16T21:15:04.797Z,99688.46
2023-02-16T21:17:31.823Z,99684.35
2023-02-16T21:19:58.326Z,99685.38
2023-02-16T21:22:24.946Z,99686.04
2023-02-16T21:24:51.782Z,99684.29
2023-02-16T21:27:18.254Z,99680.16
2023-02-16T21:29:44.873Z,99678.27
2023-02-16T21:32:11.674Z,99676.45
2023-02-16T21:34:40.681Z,99673.36
2023-02-16T21:37:07.326Z,99673.55
2023-02-16T21:39:54.788Z,99670.06
2023-02-16T21:42:21.572Z,99667.70
2023-02-16T21:45:08.076Z,99668.67
2023-02-16T21:47:53.245Z,99663.27
2023-02-16T21:50:19.876Z,99662.37
2023-02-16T21:52:46.309Z,99659.29
2023-02-16T21:55:31.398Z,99659.52
2023-02-16T21:58:00.529Z,99653.92
2023-02-16T22:00:27.221Z,99648.66
2023-02-16T22:02:53.686Z,99645.19
2023-02-16T22:05:22.930Z,99645.84
2023-02-16T22:07:51.891Z,99641.69
2023-02-16T22:10:18.590Z,99635.17
2023-02-16T22:12:45.391Z,99637.29
2023-02-16T22:15:11.961Z,99636.77
2023-02-16T22:17:43.188Z,99636.02
2023-02-16T22:20:10.598Z,99636.34
2023-02-16T22:22:37.163Z,99637.54
2023-02-16T22:25:03.968Z,99635.38
2023-02-16T22:27:33.208Z,99632.64
2023-02-16T22:29:59.808Z,99633.56
2023-02-16T22:32:26.684Z,99633.84
2023-02-16T22:34:55.624Z,99629.56
2023-02-16T22:37:22.238Z,99629.73
2023-02-16T22:39:49.520Z,99629.90
2023-02-16T22:42:16.345Z,99627.10
2023-02-16T22:44:43.006Z,99627.48
2023-02-16T22:47:09.515Z,99626.69
2023-02-16T22:49:36.262Z,99621.82
2023-02-16T22:52:02.935Z,99624.48
2023-02-16T22:54:29.376Z,99622.52
2023-02-16T22:57:00.609Z,99622.79
2023-02-16T22:59:30.236Z,99615.52
2023-02-16T23:01:56.870Z,99610.52
2023-02-16T23:04:26.109Z,99607.91
2023-02-16T23:06:52.867Z,99603.54
2023-02-16T23:09:21.582Z,99599.48
2023-02-16T23:11:49.473Z,99595.92
2023-02-16T23:14:17.559Z,99591.27
2023-02-16T23:16:56.713Z,99586.31
2023-02-16T23:19:27.518Z,99583.44
2023-02-16T23:21:54.493Z,99575.95
2023-02-16T23:24:23.160Z,99572.58
2023-02-16T23:26:50.915Z,99568.38
2023-02-16T23:29:18.409Z,99568.34
2023-02-16T23:31:46.562Z,99568.02
2023-02-16T23:34:14.152Z,99563.58
2023-02-16T23:36:41.186Z,99565.06
2023-02-16T23:39:11.372Z,99564.18
2023-02-16T23:41:41.723Z,99565.94
2023-02-16T23:44:11.293Z,99565.35
2023-02-16T23:46:38.113Z,99568.54
2023-02-16T23:49:04.664Z,99562.20
2023-02-16T23:51:31.267Z,99560.21
2023-02-16T23:53:57.901Z,99554.33
2023-02-16T23:56:26.815Z,99556.83
2023-02-16T23:58:56.807Z,99557.52
